Howland, Ohio
Current Conditions -  °F | °C
As of 4:51 AM on Thursday 29 Jan 2015 (Local Time) from KYNG Reporting Station
Overcast Overcast  
Wind Chill: -12°   Ceiling: 7500
Heat Index: -6°   Visibility: 10mi
Dew Point: -11°   Wind: 13mph
Humidity: 66%   Direction: 120°ESE
Pressure: 30.07"   Gusts: NA
Location:  41.234°N, 80.7496°W
Report Text: KYNG 290951Z 12011KT 10SM SCT060 BKN075 OVC090 M06/M11 A3007 RMK AO2 PRESFR SLP200 T10561111
Loading
Personal Weather Stations






























Interactive Weather Map New forecast layout! Learn more

10-Day Weather Forecast

Advertisements
Track Severe Weather on mobile